Weather History for Sherman-Denison, TX

Change the Weather History Date:

Thursday, February 20, 2014

  Actual Average (KDFW) Record (KDFW)
Temperature  
Mean Temperature 56 °F 51 °F  
Max Temperature 70 °F 61 °F 86 °F (1980)
Min Temperature 41 °F 41 °F 19 °F (1939)
Degree Days  
Heating Degree Days 9 14  
Month to date heating degree days 323  
Since 1 July heating degree days 1828  
Cooling Degree Days 0 0  
Month to date cooling degree days 0  
Year to date cooling degree days 2  
Growing Degree Days 6 (Base 50)    
Moisture  
Dew Point 40 °F    
Average Humidity 52    
Maximum Humidity 80    
Minimum Humidity 24    
Precipitation  
Precipitation 0.00 in 0.09 in 2.42 in (1945)
Month to date precipitation 1.84  
Year to date precipitation 3.97  
Snow  
Snow 0.00 in 0.00 in 1.00 in (1929)
Month to date snowfall 0.4  
Since 1 July snowfall 1.0  
Snow Depth -    
Sea Level Pressure  
Sea Level Pressure 29.83 in    
Wind  
Wind Speed 21 mph (WSW)    
Max Wind Speed 29 mph    
Max Gust Speed 38 mph    
Visibility 10 miles    
Events      
T = Trace of Precipitation, MM = Missing Value Source: NWS Daily Summary

Daily Weather History Graph

Daily Weather History Graph

Search for Another Location

Airport:

Trip Planner

Search our weather history database for the weather conditions in past years. The results will help you decide how hot, cold, wet, or windy it might be!

Date:

Astronomy

Feb. 20, 2014 Rise Set
Actual Time 7:05 AM CST 6:15 PM CST
Civil Twilight 6:40 AM CST 6:40 PM CST
Nautical Twilight 6:11 AM CST 7:09 PM CST
Astronomical Twilight 5:42 AM CST 7:38 PM CST
Moon 11:52 PM CST (2/20) 10:06 AM CST (2/20)
Length of Visible Light 12h 00m
Length of Day
11h 09m
Waning Gibbous, 70% of the Moon is Illuminated
Feb 20
Waning Gibbous
Feb 22
Last Quarter
Mar 1
New
Mar 8
First Quarter
Mar 16
Full

Hourly Weather History & Observations

Time (CST) Temp. Windchill Dew Point Humidity Pressure Visibility Wind Dir Wind Speed Gust Speed Precip Events Conditions
12:15 AM 66.4 °F - 58.6 °F 76% 29.62 in 10.0 mi South 24.2 mph 31.1 mph N/A   Scattered Clouds
12:35 AM 66.6 °F - 58.5 °F 75% 29.62 in 10.0 mi South 25.3 mph 32.2 mph N/A   Mostly Cloudy
12:55 AM 66.9 °F - 58.5 °F 74% 29.61 in 10.0 mi South 26.5 mph 31.1 mph N/A   Overcast
1:15 AM 67.1 °F - 58.8 °F 75% 29.61 in 10.0 mi South 28.8 mph 35.7 mph N/A   Overcast
1:35 AM 67.1 °F - 59.0 °F 75% 29.62 in 10.0 mi South 28.8 mph 34.5 mph N/A   Overcast
1:55 AM 67.1 °F - 59.2 °F 76% 29.62 in 10.0 mi South 26.5 mph 33.4 mph N/A   Overcast
2:15 AM 66.9 °F - 59.4 °F 77% 29.61 in 10.0 mi South 25.3 mph 31.1 mph N/A   Overcast
2:35 AM 66.7 °F - 59.2 °F 77% 29.61 in 10.0 mi South 21.9 mph 31.1 mph N/A   Overcast
2:55 AM 66.6 °F - 59.2 °F 77% 29.60 in 10.0 mi South 25.3 mph 34.5 mph N/A   Overcast
3:15 AM 66.4 °F - 59.2 °F 78% 29.60 in 10.0 mi South 25.3 mph 33.4 mph N/A   Overcast
3:35 AM 66.4 °F - 59.2 °F 78% 29.59 in 10.0 mi South 28.8 mph 34.5 mph N/A   Overcast
3:55 AM 66.4 °F - 59.2 °F 78% 29.58 in 10.0 mi South 24.2 mph 34.5 mph N/A   Overcast
4:15 AM 66.6 °F - 59.2 °F 77% 29.57 in 10.0 mi South 28.8 mph 38.0 mph N/A   Overcast
4:35 AM 66.6 °F - 59.0 °F 77% 29.57 in 10.0 mi South 28.8 mph 35.7 mph N/A   Overcast
4:55 AM 66.6 °F - 59.0 °F 77% 29.58 in 10.0 mi South 26.5 mph 34.5 mph N/A   Overcast
5:15 AM 66.4 °F - 59.0 °F 77% 29.58 in 10.0 mi South 23.0 mph 34.5 mph N/A   Mostly Cloudy
5:35 AM 66.4 °F - 59.0 °F 77% 29.59 in 10.0 mi South 27.6 mph 35.7 mph N/A   Mostly Cloudy
5:55 AM 66.4 °F - 59.0 °F 77% 29.60 in 10.0 mi SSW 26.5 mph 35.7 mph N/A   Mostly Cloudy
6:15 AM 66.2 °F - 58.6 °F 77% 29.61 in 10.0 mi SSW 28.8 mph 34.5 mph N/A   Mostly Cloudy
6:35 AM 65.5 °F - 58.5 °F 78% 29.61 in 10.0 mi SSW 28.8 mph 35.7 mph N/A   Scattered Clouds
6:55 AM 65.3 °F - 58.3 °F 78% 29.62 in 10.0 mi SSW 24.2 mph 32.2 mph N/A   Scattered Clouds
7:15 AM 64.6 °F - 58.3 °F 80% 29.63 in 10.0 mi SSW 24.2 mph 32.2 mph N/A   Scattered Clouds
7:35 AM 64.8 °F - 58.5 °F 80% 29.64 in 10.0 mi SSW 19.6 mph 31.1 mph N/A   Scattered Clouds
7:55 AM 64.9 °F - 58.5 °F 79% 29.65 in 10.0 mi SSW 20.7 mph 28.8 mph N/A   Scattered Clouds
8:15 AM 65.5 °F - 58.5 °F 78% 29.68 in 10.0 mi SSW 23.0 mph 29.9 mph N/A   Clear
8:35 AM 66.2 °F - 59.0 °F 78% 29.68 in 10.0 mi SSW 19.6 mph 32.2 mph N/A   Clear
8:55 AM 66.4 °F - 59.0 °F 77% 29.70 in 10.0 mi SW 17.3 mph 23.0 mph N/A   Clear
9:15 AM 67.1 °F - 58.6 °F 74% 29.71 in 10.0 mi SW 17.3 mph 26.5 mph N/A   Clear
9:35 AM 69.3 °F - 57.6 °F 66% 29.73 in 10.0 mi WSW 16.1 mph - N/A   Clear
9:55 AM 70.9 °F - 46.8 °F 42% 29.75 in 10.0 mi West 21.9 mph 31.1 mph N/A   Clear
10:15 AM 69.3 °F - 34.2 °F 27% 29.77 in 10.0 mi West 20.7 mph 27.6 mph N/A   Clear
10:35 AM 69.6 °F - 31.6 °F 24% 29.79 in 7.0 mi WNW 23.0 mph 29.9 mph N/A   Clear
10:55 AM 68.0 °F - 33.4 °F 28% 29.81 in 5.0 mi West 26.5 mph 31.1 mph N/A   Haze
11:15 AM 65.5 °F - 32.9 °F 30% 29.83 in 5.0 mi WNW 23.0 mph 31.1 mph N/A   Haze
11:35 AM 64.6 °F - 33.4 °F 31% 29.85 in 7.0 mi WNW 23.0 mph 28.8 mph N/A   Clear
11:55 AM 64.0 °F - 31.6 °F 30% 29.86 in 10.0 mi WNW 23.0 mph 29.9 mph N/A   Clear
12:15 PM 64.2 °F - 31.6 °F 30% 29.87 in 10.0 mi NW 24.2 mph 29.9 mph N/A   Clear
12:35 PM 63.3 °F - 32.0 °F 31% 29.88 in 10.0 mi NW 23.0 mph 28.8 mph N/A   Clear
12:55 PM 62.6 °F - 32.0 °F 32% 29.89 in 10.0 mi NW 20.7 mph 33.4 mph N/A   Clear
1:15 PM 63.0 °F - 32.5 °F 32% 29.89 in 10.0 mi NW 20.7 mph 28.8 mph N/A   Clear
1:35 PM 62.6 °F - 31.3 °F 31% 29.90 in 10.0 mi NW 24.2 mph 32.2 mph N/A   Clear
1:55 PM 61.0 °F - 29.5 °F 30% 29.90 in 10.0 mi NW 20.7 mph 27.6 mph N/A   Clear
2:15 PM 61.0 °F - 29.8 °F 31% 29.91 in 10.0 mi NW 19.6 mph 26.5 mph N/A   Clear
2:35 PM 60.8 °F - 29.7 °F 31% 29.92 in 10.0 mi NW 21.9 mph 28.8 mph N/A   Clear
2:55 PM 60.3 °F - 30.0 °F 32% 29.93 in 10.0 mi WNW 24.2 mph 33.4 mph N/A   Clear
3:15 PM 60.1 °F - 29.8 °F 32% 29.94 in 10.0 mi NW 23.0 mph 28.8 mph N/A   Clear
3:35 PM 59.9 °F - 29.7 °F 32% 29.94 in 10.0 mi NNW 21.9 mph 28.8 mph N/A   Clear
3:55 PM 59.5 °F - 28.9 °F 31% 29.95 in 10.0 mi NW 19.6 mph 28.8 mph N/A   Clear
4:15 PM 59.0 °F - 29.7 °F 33% 29.96 in 10.0 mi NW 16.1 mph - N/A   Clear
4:35 PM 59.0 °F - 28.2 °F 31% 29.96 in 10.0 mi NW 17.3 mph 23.0 mph N/A   Clear
4:55 PM 58.3 °F - 27.5 °F 31% 29.97 in 10.0 mi NW 13.8 mph 25.3 mph N/A   Clear
5:15 PM 58.1 °F - 27.5 °F 31% 29.98 in 10.0 mi NW 15.0 mph - N/A   Clear
5:35 PM 57.4 °F - 26.8 °F 31% 29.99 in 10.0 mi NW 17.3 mph - N/A   Clear
5:55 PM 56.3 °F - 26.1 °F 31% 30.00 in 10.0 mi NW 12.7 mph - N/A   Clear
6:15 PM 54.5 °F - 25.2 °F 32% 30.02 in 10.0 mi NNW 11.5 mph - N/A   Clear
6:35 PM 53.2 °F - 22.8 °F 31% 30.02 in 10.0 mi NW 10.4 mph - N/A   Clear
6:55 PM 51.1 °F - 22.1 °F 32% 30.04 in 10.0 mi NW 6.9 mph - N/A   Clear
7:15 PM 49.5 °F - 22.1 °F 34% 30.05 in 10.0 mi NW 3.5 mph - N/A   Clear
7:35 PM 49.1 °F - 21.7 °F 34% 30.06 in 10.0 mi Calm Calm - N/A   Clear
7:55 PM 48.0 °F - 23.0 °F 37% 30.07 in 10.0 mi Calm Calm - N/A   Clear
8:15 PM 48.2 °F - 23.7 °F 38% 30.07 in 10.0 mi Calm Calm - N/A   Clear
8:35 PM 46.2 °F - 24.3 °F 42% 30.08 in 10.0 mi Calm Calm - N/A   Clear
8:55 PM 43.9 °F - 27.0 °F 51% 30.08 in 10.0 mi Calm Calm - N/A   Clear
9:15 PM 44.8 °F 43.3 °F 24.4 °F 45% 30.09 in 10.0 mi SSW 3.5 mph - N/A   Clear
9:35 PM 44.6 °F - 24.4 °F 45% 30.10 in 10.0 mi Calm Calm - N/A   Clear
9:55 PM 44.6 °F - 23.4 °F 43% 30.10 in 10.0 mi Calm Calm - N/A   Clear
10:15 PM 44.2 °F - 23.4 °F 44% 30.11 in 10.0 mi Calm Calm - N/A   Clear
10:35 PM 42.4 °F - 24.1 °F 48% 30.12 in 10.0 mi Calm Calm - N/A   Clear
10:55 PM 42.8 °F - 24.8 °F 49% 30.12 in 10.0 mi Calm Calm - N/A   Clear
11:15 PM 43.7 °F - 25.7 °F 49% 30.12 in 10.0 mi Calm Calm - N/A   Clear
11:35 PM 43.2 °F - 25.3 °F 49% 30.12 in 10.0 mi Calm Calm - N/A   Clear
11:55 PM 41.9 °F 40.0 °F 25.7 °F 53% 30.12 in 10.0 mi NNW 3.5 mph - N/A   Clear